sensor_id;sensor_type;location;lat;lon;timestamp;P1;durP1;ratioP1;P2;durP2;ratioP2
18280;SDS011;9266;51.132;17.062;2023-08-20T00:00:50;23.67;;;21.40;;
18280;SDS011;9266;51.132;17.062;2023-08-20T00:03:17;23.30;;;20.90;;
18280;SDS011;9266;51.132;17.062;2023-08-20T00:05:44;22.43;;;20.27;;
18280;SDS011;9266;51.132;17.062;2023-08-20T00:08:12;23.27;;;20.83;;
18280;SDS011;9266;51.132;17.062;2023-08-20T00:10:39;24.03;;;20.83;;
18280;SDS011;9266;51.132;17.062;2023-08-20T00:13:06;22.97;;;20.57;;
18280;SDS011;9266;51.132;17.062;2023-08-20T00:15:34;23.33;;;20.97;;
18280;SDS011;9266;51.132;17.062;2023-08-20T00:18:02;24.73;;;22.13;;
18280;SDS011;9266;51.132;17.062;2023-08-20T00:20:29;24.43;;;21.93;;
18280;SDS011;9266;51.132;17.062;2023-08-20T00:22:57;25.10;;;22.50;;
18280;SDS011;9266;51.132;17.062;2023-08-20T00:25:24;25.53;;;23.13;;
18280;SDS011;9266;51.132;17.062;2023-08-20T00:27:51;24.60;;;21.83;;
18280;SDS011;9266;51.132;17.062;2023-08-20T00:30:18;25.47;;;22.77;;
18280;SDS011;9266;51.132;17.062;2023-08-20T00:32:47;24.77;;;22.23;;
18280;SDS011;9266;51.132;17.062;2023-08-20T00:35:14;25.57;;;22.93;;
18280;SDS011;9266;51.132;17.062;2023-08-20T00:37:42;25.73;;;23.03;;
18280;SDS011;9266;51.132;17.062;2023-08-20T00:40:10;26.20;;;23.37;;
18280;SDS011;9266;51.132;17.062;2023-08-20T00:42:37;29.17;;;23.83;;
18280;SDS011;9266;51.132;17.062;2023-08-20T00:45:04;25.50;;;22.93;;
18280;SDS011;9266;51.132;17.062;2023-08-20T00:47:32;24.43;;;21.90;;
18280;SDS011;9266;51.132;17.062;2023-08-20T00:50:02;27.27;;;24.40;;
18280;SDS011;9266;51.132;17.062;2023-08-20T00:52:32;27.77;;;24.13;;
18280;SDS011;9266;51.132;17.062;2023-08-20T00:54:59;27.03;;;24.33;;
18280;SDS011;9266;51.132;17.062;2023-08-20T00:57:30;27.60;;;24.73;;
18280;SDS011;9266;51.132;17.062;2023-08-20T00:59:57;28.77;;;25.93;;
18280;SDS011;9266;51.132;17.062;2023-08-20T01:02:24;28.50;;;25.60;;
18280;SDS011;9266;51.132;17.062;2023-08-20T01:04:51;30.83;;;26.33;;
18280;SDS011;9266;51.132;17.062;2023-08-20T01:07:22;29.30;;;26.30;;
18280;SDS011;9266;51.132;17.062;2023-08-20T01:09:57;28.67;;;25.50;;
18280;SDS011;9266;51.132;17.062;2023-08-20T01:12:31;28.83;;;25.83;;
18280;SDS011;9266;51.132;17.062;2023-08-20T01:15:00;28.17;;;25.37;;
18280;SDS011;9266;51.132;17.062;2023-08-20T01:17:27;28.87;;;25.83;;
18280;SDS011;9266;51.132;17.062;2023-08-20T01:19:54;29.77;;;26.80;;
18280;SDS011;9266;51.132;17.062;2023-08-20T01:22:40;30.70;;;27.17;;
18280;SDS011;9266;51.132;17.062;2023-08-20T01:25:24;29.97;;;26.97;;
18280;SDS011;9266;51.132;17.062;2023-08-20T01:28:19;31.13;;;27.70;;
18280;SDS011;9266;51.132;17.062;2023-08-20T01:30:51;29.73;;;26.67;;
18280;SDS011;9266;51.132;17.062;2023-08-20T01:33:20;30.70;;;27.37;;
18280;SDS011;9266;51.132;17.062;2023-08-20T01:35:47;29.73;;;26.50;;
18280;SDS011;9266;51.132;17.062;2023-08-20T01:38:14;30.17;;;26.97;;
18280;SDS011;9266;51.132;17.062;2023-08-20T01:40:41;42.73;;;35.73;;
18280;SDS011;9266;51.132;17.062;2023-08-20T01:43:08;41.83;;;37.37;;
18280;SDS011;9266;51.132;17.062;2023-08-20T01:45:37;38.97;;;34.73;;
18280;SDS011;9266;51.132;17.062;2023-08-20T01:48:04;35.03;;;30.77;;
18280;SDS011;9266;51.132;17.062;2023-08-20T01:50:32;31.47;;;28.07;;
18280;SDS011;9266;51.132;17.062;2023-08-20T01:53:00;31.30;;;28.00;;
18280;SDS011;9266;51.132;17.062;2023-08-20T01:55:27;30.53;;;27.43;;
18280;SDS011;9266;51.132;17.062;2023-08-20T01:57:54;30.37;;;27.17;;
18280;SDS011;9266;51.132;17.062;2023-08-20T02:00:21;31.17;;;27.93;;
18280;SDS011;9266;51.132;17.062;2023-08-20T02:02:50;30.90;;;27.53;;
18280;SDS011;9266;51.132;17.062;2023-08-20T02:05:17;30.67;;;27.47;;
18280;SDS011;9266;51.132;17.062;2023-08-20T02:07:44;32.27;;;28.90;;
18280;SDS011;9266;51.132;17.062;2023-08-20T02:10:11;33.67;;;30.17;;
18280;SDS011;9266;51.132;17.062;2023-08-20T02:12:39;33.47;;;29.90;;
18280;SDS011;9266;51.132;17.062;2023-08-20T02:15:06;32.87;;;29.47;;
18280;SDS011;9266;51.132;17.062;2023-08-20T02:17:34;35.07;;;31.23;;
18280;SDS011;9266;51.132;17.062;2023-08-20T02:20:03;32.63;;;29.33;;
18280;SDS011;9266;51.132;17.062;2023-08-20T02:22:32;32.70;;;29.43;;
18280;SDS011;9266;51.132;17.062;2023-08-20T02:24:59;33.90;;;30.23;;
18280;SDS011;9266;51.132;17.062;2023-08-20T02:27:26;33.90;;;30.30;;
18280;SDS011;9266;51.132;17.062;2023-08-20T02:29:53;31.37;;;27.97;;
18280;SDS011;9266;51.132;17.062;2023-08-20T02:32:20;32.43;;;29.13;;
18280;SDS011;9266;51.132;17.062;2023-08-20T02:34:48;32.47;;;28.23;;
18280;SDS011;9266;51.132;17.062;2023-08-20T02:37:17;34.77;;;30.03;;
18280;SDS011;9266;51.132;17.062;2023-08-20T02:39:44;34.03;;;30.30;;
18280;SDS011;9266;51.132;17.062;2023-08-20T02:42:11;34.60;;;30.47;;
18280;SDS011;9266;51.132;17.062;2023-08-20T02:44:38;33.60;;;29.27;;
18280;SDS011;9266;51.132;17.062;2023-08-20T02:47:05;33.23;;;28.30;;
18280;SDS011;9266;51.132;17.062;2023-08-20T02:49:32;34.20;;;30.40;;
18280;SDS011;9266;51.132;17.062;2023-08-20T02:51:59;34.13;;;29.57;;
18280;SDS011;9266;51.132;17.062;2023-08-20T02:54:29;32.47;;;29.17;;
18280;SDS011;9266;51.132;17.062;2023-08-20T02:56:57;35.37;;;30.90;;
18280;SDS011;9266;51.132;17.062;2023-08-20T02:59:24;33.70;;;30.10;;
18280;SDS011;9266;51.132;17.062;2023-08-20T03:01:51;33.93;;;29.53;;
18280;SDS011;9266;51.132;17.062;2023-08-20T03:04:18;31.53;;;27.93;;
18280;SDS011;9266;51.132;17.062;2023-08-20T03:06:45;31.27;;;27.87;;
18280;SDS011;9266;51.132;17.062;2023-08-20T03:09:12;32.57;;;29.03;;
18280;SDS011;9266;51.132;17.062;2023-08-20T03:11:40;31.10;;;27.90;;
18280;SDS011;9266;51.132;17.062;2023-08-20T03:14:08;34.10;;;30.47;;
18280;SDS011;9266;51.132;17.062;2023-08-20T03:16:35;32.83;;;29.23;;
18280;SDS011;9266;51.132;17.062;2023-08-20T03:19:02;32.00;;;28.50;;
18280;SDS011;9266;51.132;17.062;2023-08-20T03:21:28;31.13;;;28.03;;
18280;SDS011;9266;51.132;17.062;2023-08-20T03:23:55;34.93;;;29.03;;
18280;SDS011;9266;51.132;17.062;2023-08-20T03:26:23;32.30;;;28.90;;
18280;SDS011;9266;51.132;17.062;2023-08-20T03:28:51;33.37;;;29.77;;
18280;SDS011;9266;51.132;17.062;2023-08-20T03:31:18;31.13;;;27.87;;
18280;SDS011;9266;51.132;17.062;2023-08-20T03:33:45;33.10;;;29.50;;
18280;SDS011;9266;51.132;17.062;2023-08-20T03:36:12;32.77;;;29.07;;
18280;SDS011;9266;51.132;17.062;2023-08-20T03:38:39;34.43;;;29.30;;
18280;SDS011;9266;51.132;17.062;2023-08-20T03:41:06;32.37;;;28.77;;
18280;SDS011;9266;51.132;17.062;2023-08-20T03:43:32;31.63;;;28.17;;
18280;SDS011;9266;51.132;17.062;2023-08-20T03:46:01;32.43;;;27.50;;
18280;SDS011;9266;51.132;17.062;2023-08-20T03:48:28;36.63;;;30.17;;
18280;SDS011;9266;51.132;17.062;2023-08-20T03:50:55;34.40;;;27.30;;
18280;SDS011;9266;51.132;17.062;2023-08-20T03:53:22;32.27;;;28.73;;
18280;SDS011;9266;51.132;17.062;2023-08-20T03:55:49;34.00;;;29.70;;
18280;SDS011;9266;51.132;17.062;2023-08-20T03:58:16;33.90;;;30.40;;
18280;SDS011;9266;51.132;17.062;2023-08-20T04:00:43;34.47;;;30.70;;
18280;SDS011;9266;51.132;17.062;2023-08-20T04:03:12;34.23;;;30.53;;
18280;SDS011;9266;51.132;17.062;2023-08-20T04:05:39;32.97;;;29.07;;
18280;SDS011;9266;51.132;17.062;2023-08-20T04:08:06;32.90;;;29.23;;
18280;SDS011;9266;51.132;17.062;2023-08-20T04:10:33;32.30;;;28.90;;
18280;SDS011;9266;51.132;17.062;2023-08-20T04:13:00;32.83;;;28.80;;
18280;SDS011;9266;51.132;17.062;2023-08-20T04:15:27;31.07;;;27.90;;
18280;SDS011;9266;51.132;17.062;2023-08-20T04:17:54;30.50;;;27.40;;
18280;SDS011;9266;51.132;17.062;2023-08-20T04:20:23;30.73;;;27.50;;
18280;SDS011;9266;51.132;17.062;2023-08-20T04:22:50;30.27;;;27.13;;
18280;SDS011;9266;51.132;17.062;2023-08-20T04:25:17;28.87;;;25.87;;
18280;SDS011;9266;51.132;17.062;2023-08-20T04:27:44;29.37;;;26.47;;
18280;SDS011;9266;51.132;17.062;2023-08-20T04:30:11;27.40;;;24.70;;
18280;SDS011;9266;51.132;17.062;2023-08-20T04:32:38;26.03;;;23.50;;
18280;SDS011;9266;51.132;17.062;2023-08-20T04:35:05;25.30;;;21.47;;
18280;SDS011;9266;51.132;17.062;2023-08-20T04:37:34;22.80;;;20.50;;
18280;SDS011;9266;51.132;17.062;2023-08-20T04:40:01;20.33;;;18.10;;
18280;SDS011;9266;51.132;17.062;2023-08-20T04:42:29;19.80;;;17.80;;
18280;SDS011;9266;51.132;17.062;2023-08-20T04:44:56;18.48;;;16.67;;
18280;SDS011;9266;51.132;17.062;2023-08-20T04:47:23;19.10;;;17.27;;
18280;SDS011;9266;51.132;17.062;2023-08-20T04:49:51;19.02;;;16.52;;
18280;SDS011;9266;51.132;17.062;2023-08-20T04:52:18;18.17;;;16.27;;
18280;SDS011;9266;51.132;17.062;2023-08-20T04:54:46;17.50;;;15.60;;
18280;SDS011;9266;51.132;17.062;2023-08-20T04:57:13;18.95;;;16.90;;
18280;SDS011;9266;51.132;17.062;2023-08-20T04:59:41;18.55;;;16.65;;
18280;SDS011;9266;51.132;17.062;2023-08-20T05:02:10;18.63;;;16.83;;
18280;SDS011;9266;51.132;17.062;2023-08-20T05:04:37;19.23;;;16.30;;
18280;SDS011;9266;51.132;17.062;2023-08-20T05:07:04;18.85;;;16.83;;
18280;SDS011;9266;51.132;17.062;2023-08-20T05:09:32;17.58;;;15.38;;
18280;SDS011;9266;51.132;17.062;2023-08-20T05:12:01;17.42;;;15.63;;
18280;SDS011;9266;51.132;17.062;2023-08-20T05:14:28;18.45;;;16.55;;
18280;SDS011;9266;51.132;17.062;2023-08-20T05:16:56;16.77;;;15.07;;
18280;SDS011;9266;51.132;17.062;2023-08-20T05:19:23;17.25;;;15.65;;
18280;SDS011;9266;51.132;17.062;2023-08-20T05:21:50;17.92;;;16.23;;
18280;SDS011;9266;51.132;17.062;2023-08-20T05:24:17;18.05;;;16.30;;
18280;SDS011;9266;51.132;17.062;2023-08-20T05:26:45;19.17;;;15.70;;
18280;SDS011;9266;51.132;17.062;2023-08-20T05:29:13;17.20;;;15.57;;
18280;SDS011;9266;51.132;17.062;2023-08-20T05:31:40;17.83;;;16.13;;
18280;SDS011;9266;51.132;17.062;2023-08-20T05:34:07;17.73;;;15.93;;
18280;SDS011;9266;51.132;17.062;2023-08-20T05:36:35;18.17;;;16.10;;
18280;SDS011;9266;51.132;17.062;2023-08-20T05:39:02;16.88;;;15.18;;
18280;SDS011;9266;51.132;17.062;2023-08-20T05:41:29;17.55;;;15.85;;
18280;SDS011;9266;51.132;17.062;2023-08-20T05:43:56;16.75;;;15.15;;
18280;SDS011;9266;51.132;17.062;2023-08-20T05:46:24;18.08;;;16.27;;
18280;SDS011;9266;51.132;17.062;2023-08-20T05:48:51;18.30;;;16.58;;
18280;SDS011;9266;51.132;17.062;2023-08-20T05:51:18;18.02;;;16.23;;
18280;SDS011;9266;51.132;17.062;2023-08-20T05:53:45;18.27;;;16.27;;
18280;SDS011;9266;51.132;17.062;2023-08-20T05:56:12;18.35;;;16.40;;
18280;SDS011;9266;51.132;17.062;2023-08-20T05:58:39;17.08;;;15.32;;
18280;SDS011;9266;51.132;17.062;2023-08-20T06:01:06;17.25;;;15.43;;
18280;SDS011;9266;51.132;17.062;2023-08-20T06:03:34;17.40;;;15.70;;
18280;SDS011;9266;51.132;17.062;2023-08-20T06:06:01;18.13;;;16.20;;
18280;SDS011;9266;51.132;17.062;2023-08-20T06:08:28;17.77;;;16.08;;
18280;SDS011;9266;51.132;17.062;2023-08-20T06:10:55;15.07;;;13.63;;
18280;SDS011;9266;51.132;17.062;2023-08-20T06:13:22;16.52;;;14.75;;
18280;SDS011;9266;51.132;17.062;2023-08-20T06:15:49;17.40;;;15.70;;
18280;SDS011;9266;51.132;17.062;2023-08-20T06:18:16;17.33;;;15.18;;
18280;SDS011;9266;51.132;17.062;2023-08-20T06:20:44;15.77;;;13.95;;
18280;SDS011;9266;51.132;17.062;2023-08-20T06:23:11;17.00;;;15.38;;
18280;SDS011;9266;51.132;17.062;2023-08-20T06:25:38;15.23;;;13.73;;
18280;SDS011;9266;51.132;17.062;2023-08-20T06:28:05;19.42;;;15.35;;
18280;SDS011;9266;51.132;17.062;2023-08-20T06:30:32;18.08;;;14.38;;
18280;SDS011;9266;51.132;17.062;2023-08-20T06:32:59;17.73;;;16.02;;
18280;SDS011;9266;51.132;17.062;2023-08-20T06:35:26;16.75;;;15.05;;
18280;SDS011;9266;51.132;17.062;2023-08-20T06:37:54;16.27;;;14.68;;
18280;SDS011;9266;51.132;17.062;2023-08-20T06:40:21;17.80;;;16.10;;
18280;SDS011;9266;51.132;17.062;2023-08-20T06:42:48;16.98;;;15.20;;
18280;SDS011;9266;51.132;17.062;2023-08-20T06:45:15;16.65;;;15.05;;
18280;SDS011;9266;51.132;17.062;2023-08-20T06:47:42;16.75;;;15.13;;
18280;SDS011;9266;51.132;17.062;2023-08-20T06:50:09;15.57;;;14.00;;
18280;SDS011;9266;51.132;17.062;2023-08-20T06:52:37;16.92;;;15.20;;
18280;SDS011;9266;51.132;17.062;2023-08-20T06:55:05;16.13;;;14.40;;
18280;SDS011;9266;51.132;17.062;2023-08-20T06:57:32;16.95;;;15.25;;
18280;SDS011;9266;51.132;17.062;2023-08-20T06:59:59;17.30;;;15.65;;
18280;SDS011;9266;51.132;17.062;2023-08-20T07:02:26;17.73;;;16.02;;
18280;SDS011;9266;51.132;17.062;2023-08-20T07:04:53;17.60;;;15.77;;
18280;SDS011;9266;51.132;17.062;2023-08-20T07:07:20;16.60;;;14.30;;
18280;SDS011;9266;51.132;17.062;2023-08-20T07:09:47;17.35;;;15.70;;
18280;SDS011;9266;51.132;17.062;2023-08-20T07:12:15;16.77;;;15.07;;
18280;SDS011;9266;51.132;17.062;2023-08-20T07:14:42;16.15;;;14.50;;
18280;SDS011;9266;51.132;17.062;2023-08-20T07:17:09;15.13;;;13.73;;
18280;SDS011;9266;51.132;17.062;2023-08-20T07:19:36;16.40;;;13.23;;
18280;SDS011;9266;51.132;17.062;2023-08-20T07:22:03;14.18;;;12.77;;
18280;SDS011;9266;51.132;17.062;2023-08-20T07:24:30;13.18;;;11.88;;
18280;SDS011;9266;51.132;17.062;2023-08-20T07:26:59;11.60;;;10.27;;
18280;SDS011;9266;51.132;17.062;2023-08-20T07:29:30;12.40;;;10.48;;
18280;SDS011;9266;51.132;17.062;2023-08-20T07:31:57;11.80;;;10.60;;
18280;SDS011;9266;51.132;17.062;2023-08-20T07:34:28;12.25;;;11.15;;
18280;SDS011;9266;51.132;17.062;2023-08-20T07:36:55;12.75;;;11.45;;
18280;SDS011;9266;51.132;17.062;2023-08-20T07:39:23;12.75;;;11.68;;
18280;SDS011;9266;51.132;17.062;2023-08-20T07:41:49;13.25;;;11.98;;
18280;SDS011;9266;51.132;17.062;2023-08-20T07:44:16;12.40;;;11.25;;
18280;SDS011;9266;51.132;17.062;2023-08-20T07:46:45;13.15;;;11.80;;
18280;SDS011;9266;51.132;17.062;2023-08-20T07:49:12;13.05;;;11.75;;
18280;SDS011;9266;51.132;17.062;2023-08-20T07:51:38;13.75;;;12.45;;
18280;SDS011;9266;51.132;17.062;2023-08-20T07:54:05;13.40;;;12.05;;
18280;SDS011;9266;51.132;17.062;2023-08-20T07:56:32;12.98;;;11.85;;
18280;SDS011;9266;51.132;17.062;2023-08-20T07:58:59;12.48;;;11.18;;
18280;SDS011;9266;51.132;17.062;2023-08-20T08:01:26;11.38;;;10.30;;
18280;SDS011;9266;51.132;17.062;2023-08-20T08:03:55;11.27;;;10.18;;
18280;SDS011;9266;51.132;17.062;2023-08-20T08:06:22;10.77;;;9.73;;
18280;SDS011;9266;51.132;17.062;2023-08-20T08:08:49;10.82;;;9.73;;
18280;SDS011;9266;51.132;17.062;2023-08-20T08:11:16;10.40;;;9.32;;
18280;SDS011;9266;51.132;17.062;2023-08-20T08:13:43;10.07;;;9.10;;
18280;SDS011;9266;51.132;17.062;2023-08-20T08:16:10;9.00;;;8.10;;
18280;SDS011;9266;51.132;17.062;2023-08-20T08:18:36;8.20;;;7.50;;
18280;SDS011;9266;51.132;17.062;2023-08-20T08:21:05;8.27;;;7.45;;
18280;SDS011;9266;51.132;17.062;2023-08-20T08:23:32;8.77;;;7.88;;
18280;SDS011;9266;51.132;17.062;2023-08-20T08:25:59;8.77;;;7.90;;
18280;SDS011;9266;51.132;17.062;2023-08-20T08:28:25;8.18;;;7.43;;
18280;SDS011;9266;51.132;17.062;2023-08-20T08:30:52;8.10;;;7.40;;
18280;SDS011;9266;51.132;17.062;2023-08-20T08:33:19;8.43;;;7.72;;
18280;SDS011;9266;51.132;17.062;2023-08-20T08:35:46;8.00;;;7.00;;
18280;SDS011;9266;51.132;17.062;2023-08-20T08:38:14;8.40;;;7.50;;
18280;SDS011;9266;51.132;17.062;2023-08-20T08:40:41;8.35;;;7.55;;
18280;SDS011;9266;51.132;17.062;2023-08-20T08:43:09;6.88;;;6.28;;
18280;SDS011;9266;51.132;17.062;2023-08-20T08:45:41;7.00;;;6.45;;
18280;SDS011;9266;51.132;17.062;2023-08-20T08:48:11;7.53;;;6.45;;
18280;SDS011;9266;51.132;17.062;2023-08-20T08:50:39;8.50;;;6.72;;
18280;SDS011;9266;51.132;17.062;2023-08-20T08:53:06;6.50;;;5.90;;
18280;SDS011;9266;51.132;17.062;2023-08-20T08:55:36;7.47;;;6.78;;
18280;SDS011;9266;51.132;17.062;2023-08-20T08:58:03;6.93;;;6.32;;
18280;SDS011;9266;51.132;17.062;2023-08-20T09:00:30;7.85;;;7.15;;
18280;SDS011;9266;51.132;17.062;2023-08-20T09:02:57;8.52;;;7.30;;
18280;SDS011;9266;51.132;17.062;2023-08-20T09:05:24;7.78;;;6.97;;
18280;SDS011;9266;51.132;17.062;2023-08-20T09:07:54;7.43;;;6.82;;
18280;SDS011;9266;51.132;17.062;2023-08-20T09:10:25;7.78;;;6.97;;
18280;SDS011;9266;51.132;17.062;2023-08-20T09:12:54;8.07;;;7.28;;
18280;SDS011;9266;51.132;17.062;2023-08-20T09:15:23;8.00;;;7.30;;
18280;SDS011;9266;51.132;17.062;2023-08-20T09:17:59;7.28;;;6.68;;
18280;SDS011;9266;51.132;17.062;2023-08-20T09:20:33;7.60;;;6.80;;
18280;SDS011;9266;51.132;17.062;2023-08-20T09:23:01;9.55;;;7.53;;
18280;SDS011;9266;51.132;17.062;2023-08-20T09:25:28;9.05;;;8.15;;
18280;SDS011;9266;51.132;17.062;2023-08-20T09:27:56;8.40;;;7.60;;
18280;SDS011;9266;51.132;17.062;2023-08-20T09:30:23;8.88;;;7.90;;
18280;SDS011;9266;51.132;17.062;2023-08-20T09:33:02;8.13;;;7.43;;
18280;SDS011;9266;51.132;17.062;2023-08-20T09:35:30;7.95;;;7.15;;
18280;SDS011;9266;51.132;17.062;2023-08-20T09:38:00;8.55;;;7.82;;
18280;SDS011;9266;51.132;17.062;2023-08-20T09:40:29;7.90;;;7.28;;
18280;SDS011;9266;51.132;17.062;2023-08-20T09:42:57;8.13;;;7.35;;
18280;SDS011;9266;51.132;17.062;2023-08-20T09:45:27;7.25;;;6.57;;
18280;SDS011;9266;51.132;17.062;2023-08-20T09:47:55;8.23;;;7.38;;
18280;SDS011;9266;51.132;17.062;2023-08-20T09:50:24;8.07;;;7.38;;
18280;SDS011;9266;51.132;17.062;2023-08-20T09:52:55;8.00;;;7.13;;
18280;SDS011;9266;51.132;17.062;2023-08-20T09:55:28;8.00;;;7.20;;
18280;SDS011;9266;51.132;17.062;2023-08-20T09:58:01;9.60;;;7.40;;
18280;SDS011;9266;51.132;17.062;2023-08-20T10:00:28;8.05;;;7.00;;
18280;SDS011;9266;51.132;17.062;2023-08-20T10:02:56;8.40;;;7.10;;
18280;SDS011;9266;51.132;17.062;2023-08-20T10:05:24;7.80;;;6.95;;
18280;SDS011;9266;51.132;17.062;2023-08-20T10:07:52;8.60;;;7.53;;
18280;SDS011;9266;51.132;17.062;2023-08-20T10:10:20;8.20;;;7.40;;
18280;SDS011;9266;51.132;17.062;2023-08-20T10:12:47;7.80;;;7.13;;
18280;SDS011;9266;51.132;17.062;2023-08-20T10:15:16;8.40;;;7.50;;
18280;SDS011;9266;51.132;17.062;2023-08-20T10:17:44;8.32;;;7.53;;
18280;SDS011;9266;51.132;17.062;2023-08-20T10:20:13;8.50;;;7.70;;
18280;SDS011;9266;51.132;17.062;2023-08-20T10:22:42;9.02;;;7.20;;
18280;SDS011;9266;51.132;17.062;2023-08-20T10:25:10;8.55;;;7.45;;
18280;SDS011;9266;51.132;17.062;2023-08-20T10:27:38;8.23;;;7.28;;
18280;SDS011;9266;51.132;17.062;2023-08-20T10:30:08;7.55;;;6.53;;
18280;SDS011;9266;51.132;17.062;2023-08-20T10:32:49;7.70;;;7.05;;
18280;SDS011;9266;51.132;17.062;2023-08-20T10:35:17;7.57;;;6.95;;
18280;SDS011;9266;51.132;17.062;2023-08-20T10:38:00;7.88;;;6.75;;
18280;SDS011;9266;51.132;17.062;2023-08-20T10:46:15;7.40;;;6.80;;
18280;SDS011;9266;51.132;17.062;2023-08-20T10:48:47;8.02;;;7.28;;
18280;SDS011;9266;51.132;17.062;2023-08-20T10:51:15;7.82;;;7.03;;
18280;SDS011;9266;51.132;17.062;2023-08-20T10:53:48;8.48;;;7.60;;
18280;SDS011;9266;51.132;17.062;2023-08-20T10:56:37;8.73;;;7.75;;
18280;SDS011;9266;51.132;17.062;2023-08-20T10:59:06;7.93;;;7.22;;
18280;SDS011;9266;51.132;17.062;2023-08-20T11:01:34;9.82;;;7.60;;
18280;SDS011;9266;51.132;17.062;2023-08-20T11:04:03;8.23;;;7.45;;
18280;SDS011;9266;51.132;17.062;2023-08-20T11:06:32;7.88;;;7.07;;
18280;SDS011;9266;51.132;17.062;2023-08-20T11:08:59;8.70;;;7.88;;
18280;SDS011;9266;51.132;17.062;2023-08-20T11:11:28;8.02;;;7.20;;
18280;SDS011;9266;51.132;17.062;2023-08-20T11:13:56;9.18;;;7.55;;
18280;SDS011;9266;51.132;17.062;2023-08-20T11:16:23;7.18;;;6.47;;
18280;SDS011;9266;51.132;17.062;2023-08-20T11:18:51;8.15;;;7.35;;
18280;SDS011;9266;51.132;17.062;2023-08-20T11:21:20;8.48;;;7.75;;
18280;SDS011;9266;51.132;17.062;2023-08-20T11:23:47;10.07;;;7.15;;
18280;SDS011;9266;51.132;17.062;2023-08-20T11:26:14;8.88;;;7.30;;
18280;SDS011;9266;51.132;17.062;2023-08-20T11:28:44;8.80;;;7.90;;
18280;SDS011;9266;51.132;17.062;2023-08-20T11:31:12;8.88;;;8.13;;
18280;SDS011;9266;51.132;17.062;2023-08-20T11:33:39;7.82;;;7.22;;
18280;SDS011;9266;51.132;17.062;2023-08-20T11:36:06;9.35;;;8.45;;
18280;SDS011;9266;51.132;17.062;2023-08-20T11:38:35;9.00;;;8.10;;
18280;SDS011;9266;51.132;17.062;2023-08-20T11:41:02;8.80;;;7.97;;
18280;SDS011;9266;51.132;17.062;2023-08-20T11:43:29;8.68;;;7.85;;
18280;SDS011;9266;51.132;17.062;2023-08-20T11:45:56;8.88;;;8.05;;
18280;SDS011;9266;51.132;17.062;2023-08-20T11:48:23;8.73;;;7.95;;
18280;SDS011;9266;51.132;17.062;2023-08-20T11:50:50;8.85;;;8.02;;
18280;SDS011;9266;51.132;17.062;2023-08-20T11:53:20;9.65;;;8.73;;
18280;SDS011;9266;51.132;17.062;2023-08-20T11:55:49;9.30;;;8.13;;
18280;SDS011;9266;51.132;17.062;2023-08-20T11:58:18;8.05;;;7.35;;
18280;SDS011;9266;51.132;17.062;2023-08-20T12:00:48;8.88;;;7.60;;
18280;SDS011;9266;51.132;17.062;2023-08-20T12:03:17;9.15;;;7.93;;
18280;SDS011;9266;51.132;17.062;2023-08-20T12:05:44;8.90;;;8.10;;
18280;SDS011;9266;51.132;17.062;2023-08-20T12:08:14;8.57;;;7.88;;
18280;SDS011;9266;51.132;17.062;2023-08-20T12:10:43;8.85;;;7.80;;
18280;SDS011;9266;51.132;17.062;2023-08-20T12:13:11;8.35;;;7.65;;
18280;SDS011;9266;51.132;17.062;2023-08-20T12:15:38;8.27;;;7.68;;
18280;SDS011;9266;51.132;17.062;2023-08-20T12:18:05;8.73;;;7.93;;
18280;SDS011;9266;51.132;17.062;2023-08-20T12:20:34;8.90;;;8.10;;
18280;SDS011;9266;51.132;17.062;2023-08-20T12:23:02;8.98;;;8.10;;
18280;SDS011;9266;51.132;17.062;2023-08-20T12:25:31;9.00;;;8.07;;
18280;SDS011;9266;51.132;17.062;2023-08-20T12:27:59;8.45;;;7.75;;
18280;SDS011;9266;51.132;17.062;2023-08-20T12:30:28;9.25;;;8.40;;
18280;SDS011;9266;51.132;17.062;2023-08-20T12:32:55;8.43;;;7.72;;
18280;SDS011;9266;51.132;17.062;2023-08-20T12:35:22;8.52;;;7.82;;
18280;SDS011;9266;51.132;17.062;2023-08-20T12:37:49;8.23;;;7.38;;
18280;SDS011;9266;51.132;17.062;2023-08-20T12:40:16;9.20;;;8.30;;
18280;SDS011;9266;51.132;17.062;2023-08-20T12:42:43;8.45;;;7.75;;
18280;SDS011;9266;51.132;17.062;2023-08-20T12:45:10;9.50;;;8.60;;
18280;SDS011;9266;51.132;17.062;2023-08-20T12:47:40;8.75;;;7.97;;
18280;SDS011;9266;51.132;17.062;2023-08-20T12:50:07;8.05;;;7.25;;
18280;SDS011;9266;51.132;17.062;2023-08-20T12:52:35;8.55;;;7.72;;
18280;SDS011;9266;51.132;17.062;2023-08-20T12:55:02;7.43;;;6.63;;
18280;SDS011;9266;51.132;17.062;2023-08-20T12:57:29;7.00;;;6.38;;
18280;SDS011;9266;51.132;17.062;2023-08-20T12:59:57;7.47;;;6.68;;
18280;SDS011;9266;51.132;17.062;2023-08-20T13:02:24;7.38;;;6.60;;
18280;SDS011;9266;51.132;17.062;2023-08-20T13:04:53;8.38;;;6.82;;
18280;SDS011;9266;51.132;17.062;2023-08-20T13:07:20;7.43;;;6.72;;
18280;SDS011;9266;51.132;17.062;2023-08-20T13:09:48;7.43;;;6.72;;
18280;SDS011;9266;51.132;17.062;2023-08-20T13:12:15;7.85;;;7.13;;
18280;SDS011;9266;51.132;17.062;2023-08-20T13:14:47;7.65;;;6.90;;
18280;SDS011;9266;51.132;17.062;2023-08-20T13:17:15;7.05;;;6.20;;
18280;SDS011;9266;51.132;17.062;2023-08-20T13:19:42;7.22;;;6.53;;
18280;SDS011;9266;51.132;17.062;2023-08-20T13:22:10;8.32;;;7.10;;
18280;SDS011;9266;51.132;17.062;2023-08-20T13:24:37;7.57;;;6.88;;
18280;SDS011;9266;51.132;17.062;2023-08-20T13:27:04;7.45;;;6.63;;
18280;SDS011;9266;51.132;17.062;2023-08-20T13:29:31;7.65;;;6.93;;
18280;SDS011;9266;51.132;17.062;2023-08-20T13:31:58;7.10;;;6.50;;
18280;SDS011;9266;51.132;17.062;2023-08-20T13:34:25;7.80;;;6.68;;
18280;SDS011;9266;51.132;17.062;2023-08-20T13:36:52;7.35;;;6.65;;
18280;SDS011;9266;51.132;17.062;2023-08-20T13:39:21;7.55;;;6.78;;
18280;SDS011;9266;51.132;17.062;2023-08-20T13:41:48;7.13;;;6.47;;
18280;SDS011;9266;51.132;17.062;2023-08-20T13:44:16;7.22;;;6.53;;
18280;SDS011;9266;51.132;17.062;2023-08-20T13:46:43;7.22;;;6.53;;
18280;SDS011;9266;51.132;17.062;2023-08-20T13:49:10;7.95;;;7.25;;
18280;SDS011;9266;51.132;17.062;2023-08-20T13:51:36;7.22;;;6.53;;
18280;SDS011;9266;51.132;17.062;2023-08-20T13:54:04;6.85;;;6.18;;
18280;SDS011;9266;51.132;17.062;2023-08-20T13:56:32;6.75;;;6.15;;
18280;SDS011;9266;51.132;17.062;2023-08-20T13:58:59;7.70;;;6.22;;
18280;SDS011;9266;51.132;17.062;2023-08-20T14:01:26;7.70;;;6.05;;
18280;SDS011;9266;51.132;17.062;2023-08-20T14:03:53;9.60;;;6.50;;
18280;SDS011;9266;51.132;17.062;2023-08-20T14:06:20;7.07;;;6.38;;
18280;SDS011;9266;51.132;17.062;2023-08-20T14:08:47;6.72;;;5.95;;
18280;SDS011;9266;51.132;17.062;2023-08-20T14:11:14;6.38;;;5.70;;
18280;SDS011;9266;51.132;17.062;2023-08-20T14:13:42;8.68;;;5.97;;
18280;SDS011;9266;51.132;17.062;2023-08-20T14:16:10;6.20;;;5.63;;
18280;SDS011;9266;51.132;17.062;2023-08-20T14:18:37;7.82;;;6.07;;
18280;SDS011;9266;51.132;17.062;2023-08-20T14:21:04;6.20;;;5.60;;
18280;SDS011;9266;51.132;17.062;2023-08-20T14:23:31;6.13;;;5.53;;
18280;SDS011;9266;51.132;17.062;2023-08-20T14:25:58;5.80;;;5.20;;
18280;SDS011;9266;51.132;17.062;2023-08-20T14:28:24;6.47;;;5.88;;
18280;SDS011;9266;51.132;17.062;2023-08-20T14:30:53;6.53;;;5.93;;
18280;SDS011;9266;51.132;17.062;2023-08-20T14:33:20;8.05;;;5.80;;
18280;SDS011;9266;51.132;17.062;2023-08-20T14:35:47;6.30;;;5.78;;
18280;SDS011;9266;51.132;17.062;2023-08-20T14:38:14;7.20;;;5.78;;
18280;SDS011;9266;51.132;17.062;2023-08-20T14:40:41;6.63;;;5.57;;
18280;SDS011;9266;51.132;17.062;2023-08-20T14:43:08;6.13;;;5.45;;